Time;durP1;ratioP1;P1;durP2;ratioP2;P2;SDS_P1;SDS_P2;PMS_P1;PMS_P2;Temp;Humidity;BMP_temperature;BMP_pressure;BME280_temperature;BME280_humidity;BME280_pressure;Samples;Min_cycle;Max_cycle;Signal;HPM_P1;HPM_P2
2023/10/05 00:01:07;;;;;;;10.00;3.72;;;10.50;77.90;;;;;;5114953;28;20512;-95
2023/10/05 00:03:38;;;;;;;8.63;3.50;;;10.50;77.90;;;;;;5114593;28;20040;-94
2023/10/05 00:06:16;;;;;;;9.87;4.07;;;10.50;77.90;;;;;;5114957;28;20040;-96
2023/10/05 00:08:53;;;;;;;10.45;4.45;;;10.50;78.10;;;;;;5114453;28;20040;-95
2023/10/05 00:11:35;;;;;;;10.50;4.32;;;10.50;78.10;;;;;;5114792;28;20484;-95
2023/10/05 00:14:08;;;;;;;12.40;4.20;;;10.50;78.00;;;;;;5114612;28;20101;-94
2023/10/05 00:16:38;;;;;;;9.55;4.18;;;10.50;78.00;;;;;;5114576;28;20044;-94
2023/10/05 00:19:12;;;;;;;11.57;3.90;;;10.50;77.80;;;;;;5114483;28;20059;-95
2023/10/05 00:21:51;;;;;;;10.95;3.85;;;10.50;78.00;;;;;;5114337;28;20416;-94
2023/10/05 00:24:29;;;;;;;10.57;4.00;;;10.50;78.00;;;;;;5115657;28;20112;-96
2023/10/05 00:26:58;;;;;;;11.63;3.97;;;10.50;77.90;;;;;;5117511;28;20059;-96
2023/10/05 00:31:53;;;;;;;10.00;3.53;;;10.50;78.20;;;;;;5101999;28;20040;-96
2023/10/05 00:36:55;;;;;;;9.63;3.72;;;10.50;77.90;;;;;;5101328;28;20040;-95
2023/10/05 00:39:24;;;;;;;9.48;3.95;;;10.50;77.70;;;;;;5119239;28;20048;-96
2023/10/05 00:44:36;;;;;;;7.67;3.30;;;10.60;77.80;;;;;;5098624;28;20091;-96
2023/10/05 00:47:06;;;;;;;10.40;3.67;;;10.50;77.60;;;;;;5114225;28;20058;-95
2023/10/05 00:49:45;;;;;;;8.07;3.47;;;10.50;77.70;;;;;;5113939;28;20036;-96
2023/10/05 00:52:15;;;;;;;7.55;3.38;;;10.50;77.80;;;;;;5080829;28;20048;-95
2023/10/05 00:54:48;;;;;;;8.73;3.60;;;10.50;77.80;;;;;;5115655;28;20054;-96
2023/10/05 00:57:19;;;;;;;9.77;4.13;;;10.50;77.80;;;;;;5116155;28;20059;-95
2023/10/05 00:59:54;;;;;;;9.18;3.50;;;10.50;77.80;;;;;;5114991;28;20040;-94
2023/10/05 01:02:21;;;;;;;9.68;3.85;;;10.50;77.70;;;;;;5083353;28;20116;-96
2023/10/05 01:05:01;;;;;;;8.90;3.17;;;10.50;77.70;;;;;;5118506;28;20111;-96
2023/10/05 01:07:49;;;;;;;9.15;3.63;;;10.50;77.80;;;;;;5084463;28;20052;-95
2023/10/05 01:12:45;;;;;;;7.68;3.17;;;10.40;78.10;;;;;;5099852;28;20046;-96
2023/10/05 01:15:19;;;;;;;9.95;3.50;;;10.40;78.00;;;;;;5120500;28;20052;-95
2023/10/05 01:17:50;;;;;;;9.38;3.60;;;10.40;78.30;;;;;;5120355;28;20044;-96
2023/10/05 01:22:47;;;;;;;11.77;3.57;;;10.30;78.30;;;;;;5103285;28;20054;-95
2023/10/05 01:25:15;;;;;;;8.65;3.65;;;10.40;78.10;;;;;;5117175;28;20519;-95
2023/10/05 01:27:49;;;;;;;9.13;3.80;;;10.30;78.20;;;;;;5114612;28;20056;-95
2023/10/05 01:30:19;;;;;;;9.25;3.33;;;10.30;78.10;;;;;;5114158;28;20040;-96
2023/10/05 01:32:48;;;;;;;10.13;3.47;;;10.30;78.40;;;;;;5119364;27;20142;-95
2023/10/05 01:35:20;;;;;;;8.50;3.17;;;10.30;78.30;;;;;;5102816;28;20051;-95
2023/10/05 01:37:52;;;;;;;10.25;3.60;;;10.40;78.20;;;;;;5121769;28;20044;-96
2023/10/05 01:40:30;;;;;;;7.82;2.90;;;10.40;78.40;;;;;;5120062;28;20079;-94
2023/10/05 01:42:59;;;;;;;9.48;3.60;;;10.40;78.30;;;;;;5115286;28;20044;-95
2023/10/05 01:45:29;;;;;;;8.48;3.05;;;10.50;78.30;;;;;;5116053;28;20493;-96
2023/10/05 01:48:14;;;;;;;9.70;3.40;;;10.50;78.10;;;;;;5082441;28;20114;-96
2023/10/05 01:50:44;;;;;;;10.18;3.85;;;10.50;78.00;;;;;;5116284;28;20046;-96
2023/10/05 01:53:19;;;;;;;9.43;3.25;;;10.40;77.90;;;;;;5115127;28;20048;-95
2023/10/05 01:55:47;;;;;;;9.13;3.58;;;10.40;78.10;;;;;;5115177;28;20043;-96
2023/10/05 01:58:24;;;;;;;10.85;3.63;;;10.30;78.30;;;;;;5114728;28;20070;-95
2023/10/05 02:00:52;;;;;;;12.27;3.87;;;10.20;78.30;;;;;;5116212;28;20055;-96
2023/10/05 02:03:24;;;;;;;15.07;4.00;;;10.20;78.20;;;;;;5115943;28;20055;-95
2023/10/05 02:05:58;;;;;;;8.52;3.40;;;10.20;78.30;;;;;;5112184;28;20048;-95
2023/10/05 02:08:33;;;;;;;9.70;3.63;;;10.10;78.70;;;;;;5112098;28;20058;-95
2023/10/05 02:11:04;;;;;;;9.25;2.95;;;10.10;78.40;;;;;;5111887;28;20048;-95
2023/10/05 02:13:31;;;;;;;7.93;3.33;;;10.10;78.50;;;;;;5112263;28;20050;-95
2023/10/05 02:15:59;;;;;;;8.23;3.30;;;10.10;78.50;;;;;;5112372;28;20137;-95
2023/10/05 02:18:30;;;;;;;8.93;3.38;;;10.10;78.30;;;;;;5112443;28;20131;-94
2023/10/05 02:21:06;;;;;;;9.82;3.20;;;10.10;78.60;;;;;;5112608;28;20040;-95
2023/10/05 02:23:41;;;;;;;7.25;3.20;;;10.00;78.70;;;;;;5111715;28;20477;-95
2023/10/05 02:26:23;;;;;;;10.50;3.23;;;10.00;78.70;;;;;;5112982;28;20485;-94
2023/10/05 02:28:51;;;;;;;8.98;3.22;;;10.10;78.60;;;;;;5112167;28;20052;-95
2023/10/05 02:31:20;;;;;;;8.20;3.55;;;10.10;78.50;;;;;;5113465;28;20082;-96
2023/10/05 02:33:48;;;;;;;8.38;3.15;;;10.10;78.50;;;;;;5112676;28;20048;-95
2023/10/05 02:36:20;;;;;;;10.05;3.40;;;10.20;78.30;;;;;;5113450;28;20051;-95
2023/10/05 02:38:54;;;;;;;8.83;3.30;;;10.30;78.10;;;;;;5095168;28;20072;-94
2023/10/05 02:41:37;;;;;;;8.75;3.30;;;10.30;77.90;;;;;;5128572;27;20079;-95
2023/10/05 02:44:17;;;;;;;7.50;3.05;;;10.30;77.80;;;;;;5115419;28;20043;-95
2023/10/05 02:46:49;;;;;;;8.20;3.30;;;10.40;77.50;;;;;;5132534;27;20404;-95
2023/10/05 02:49:18;;;;;;;7.85;3.35;;;10.40;77.30;;;;;;5103801;28;20054;-95
2023/10/05 02:51:52;;;;;;;8.00;3.37;;;10.40;77.40;;;;;;5111696;28;20138;-96
2023/10/05 02:54:30;;;;;;;7.93;2.90;;;10.30;77.50;;;;;;5111380;28;20519;-95
2023/10/05 02:56:57;;;;;;;8.52;2.65;;;10.30;77.40;;;;;;5112298;28;20523;-96
2023/10/05 02:59:29;;;;;;;9.48;3.03;;;10.30;77.50;;;;;;5112726;28;20070;-95
2023/10/05 03:02:02;;;;;;;9.25;3.10;;;10.40;77.40;;;;;;5095801;28;20044;-95
2023/10/05 03:04:44;;;;;;;8.20;2.73;;;10.40;77.20;;;;;;5113300;28;20048;-96
2023/10/05 03:07:18;;;;;;;7.65;2.50;;;10.40;77.30;;;;;;5095653;28;20040;-95
2023/10/05 03:09:49;;;;;;;7.82;2.95;;;10.40;77.10;;;;;;5113060;28;20064;-96
2023/10/05 03:12:20;;;;;;;7.03;2.45;;;10.40;77.10;;;;;;5113726;28;20040;-96
2023/10/05 03:14:52;;;;;;;6.63;2.92;;;10.40;76.80;;;;;;5114105;28;20074;-95
2023/10/05 03:17:20;;;;;;;9.23;3.00;;;10.40;77.00;;;;;;5079886;28;20138;-93
2023/10/05 03:19:52;;;;;;;9.32;2.83;;;10.40;77.00;;;;;;5111415;28;20040;-95
2023/10/05 03:22:23;;;;;;;9.60;2.80;;;10.40;77.00;;;;;;5111042;28;20134;-96
2023/10/05 03:24:56;;;;;;;7.75;2.60;;;10.30;76.90;;;;;;5111099;28;20040;-96
2023/10/05 03:27:25;;;;;;;6.72;2.70;;;10.40;76.70;;;;;;5111020;28;20521;-94
2023/10/05 03:30:00;;;;;;;7.43;2.70;;;10.50;76.60;;;;;;5110678;28;20040;-95
2023/10/05 03:32:28;;;;;;;7.35;2.78;;;10.40;76.50;;;;;;5110541;28;20037;-95
2023/10/05 03:34:56;;;;;;;7.10;2.85;;;10.40;76.70;;;;;;5110589;28;20036;-96
2023/10/05 03:37:24;;;;;;;8.75;2.70;;;10.30;76.60;;;;;;5094739;28;20055;-95
2023/10/05 03:39:53;;;;;;;6.82;2.83;;;10.40;76.70;;;;;;5110332;28;20101;-94
2023/10/05 03:42:23;;;;;;;7.67;2.70;;;10.40;76.60;;;;;;5110793;28;20055;-95
2023/10/05 03:45:11;;;;;;;10.13;2.92;;;10.40;76.60;;;;;;5110365;28;20044;-95
2023/10/05 03:47:38;;;;;;;8.75;2.88;;;10.40;76.40;;;;;;5110516;28;20074;-94
2023/10/05 03:50:16;;;;;;;10.55;3.60;;;10.30;76.50;;;;;;5136354;28;20046;-95
2023/10/05 03:52:48;;;;;;;7.00;2.80;;;10.20;76.50;;;;;;5104936;28;20107;-95
2023/10/05 03:55:18;;;;;;;7.93;3.00;;;10.20;76.80;;;;;;5105061;28;20516;-92
2023/10/05 03:57:50;;;;;;;10.25;2.88;;;10.20;76.70;;;;;;5102038;28;20078;-95
2023/10/05 04:00:41;;;;;;;8.90;3.13;;;10.20;76.80;;;;;;5094355;28;20513;-95
2023/10/05 04:03:06;;;;;;;9.45;3.28;;;10.00;76.90;;;;;;5093305;28;20452;-95
2023/10/05 04:05:39;;;;;;;8.25;3.13;;;10.00;77.20;;;;;;5093341;28;20113;-95
2023/10/05 04:08:11;;;;;;;8.90;3.37;;;10.00;77.20;;;;;;5093437;28;20142;-95
2023/10/05 04:10:52;;;;;;;7.20;2.55;;;10.00;77.30;;;;;;5094077;28;20481;-95
2023/10/05 04:13:21;;;;;;;10.60;2.70;;;10.00;77.00;;;;;;5093470;28;20140;-95
2023/10/05 04:15:51;;;;;;;9.00;2.92;;;10.00;77.00;;;;;;5093373;28;20044;-95
2023/10/05 04:18:21;;;;;;;7.88;3.03;;;10.00;76.80;;;;;;5093708;28;20032;-95
2023/10/05 04:20:50;;;;;;;11.97;4.00;;;10.00;77.00;;;;;;5093929;28;20043;-95
2023/10/05 04:23:25;;;;;;;10.68;3.15;;;9.90;77.30;;;;;;5093488;28;20052;-95
2023/10/05 04:25:57;;;;;;;8.05;3.08;;;9.80;77.50;;;;;;5093273;28;20473;-95
2023/10/05 04:28:34;;;;;;;7.82;2.70;;;9.80;77.70;;;;;;5092948;28;20147;-95
2023/10/05 04:31:06;;;;;;;7.57;3.33;;;9.70;77.90;;;;;;5093150;28;20493;-96
2023/10/05 04:33:34;;;;;;;9.90;3.13;;;9.80;77.90;;;;;;5093334;28;20066;-95
2023/10/05 04:36:03;;;;;;;8.85;3.33;;;9.80;77.90;;;;;;5079579;28;20051;-95
2023/10/05 04:38:32;;;;;;;7.95;2.97;;;9.80;77.90;;;;;;5097001;28;20063;-95
2023/10/05 04:40:59;;;;;;;7.35;2.60;;;9.90;77.70;;;;;;5080124;28;20134;-96
2023/10/05 04:43:26;;;;;;;7.80;3.00;;;9.80;77.70;;;;;;5096803;28;20570;-95
2023/10/05 04:45:53;;;;;;;8.40;3.10;;;9.80;77.60;;;;;;5096633;28;20114;-95
2023/10/05 04:48:23;;;;;;;6.50;2.55;;;9.80;77.50;;;;;;5079947;28;20044;-95
2023/10/05 04:50:51;;;;;;;10.05;2.85;;;9.80;77.60;;;;;;5096554;28;20040;-95
2023/10/05 04:53:20;;;;;;;7.00;2.33;;;9.80;77.80;;;;;;5096591;28;20044;-95
2023/10/05 04:55:47;;;;;;;7.57;2.95;;;9.70;77.80;;;;;;5096783;28;20043;-96
2023/10/05 04:58:20;;;;;;;9.27;3.00;;;9.80;77.80;;;;;;5097205;28;20040;-95
2023/10/05 05:00:49;;;;;;;9.70;2.42;;;9.80;77.60;;;;;;5096373;28;20051;-95
2023/10/05 05:03:32;;;;;;;9.18;2.58;;;9.80;77.60;;;;;;5113468;27;20051;-94
2023/10/05 05:08:27;;;;;;;6.53;2.17;;;9.90;77.30;;;;;;5096530;28;20131;-95
2023/10/05 05:10:54;;;;;;;8.33;2.50;;;10.00;77.30;;;;;;5096235;28;20143;-95
2023/10/05 05:13:21;;;;;;;7.72;2.60;;;10.00;77.10;;;;;;5079511;28;20489;-93
2023/10/05 05:15:48;;;;;;;7.30;2.25;;;10.00;77.20;;;;;;5113225;27;20383;-94
2023/10/05 05:18:16;;;;;;;5.57;1.95;;;10.00;77.10;;;;;;5079530;28;20076;-95
2023/10/05 05:20:47;;;;;;;7.95;2.65;;;10.10;76.90;;;;;;5117039;27;20047;-95
2023/10/05 05:23:16;;;;;;;6.10;2.17;;;10.10;76.70;;;;;;5113036;28;20451;-95
2023/10/05 05:25:48;;;;;;;6.63;2.47;;;10.20;76.50;;;;;;5112683;27;20047;-91
2023/10/05 05:28:16;;;;;;;7.50;2.67;;;10.20;76.40;;;;;;5114572;27;20078;-94
2023/10/05 05:30:43;;;;;;;8.60;2.92;;;10.20;76.30;;;;;;5113095;28;20493;-95
2023/10/05 05:33:10;;;;;;;6.75;3.05;;;10.20;76.40;;;;;;5113362;28;20040;-94
2023/10/05 05:35:39;;;;;;;8.10;2.77;;;10.20;76.30;;;;;;5113032;28;20051;-95
2023/10/05 05:38:10;;;;;;;10.05;2.47;;;10.20;76.30;;;;;;5113166;28;20044;-94
2023/10/05 05:40:38;;;;;;;9.98;3.92;;;10.20;76.50;;;;;;5113316;28;20048;-94
2023/10/05 05:43:11;;;;;;;7.20;2.35;;;10.20;76.20;;;;;;5113212;28;20055;-94
2023/10/05 05:45:42;;;;;;;9.07;2.95;;;10.30;76.50;;;;;;5113239;28;20040;-94
2023/10/05 05:48:13;;;;;;;7.53;2.97;;;10.30;76.40;;;;;;5112928;28;20044;-94
2023/10/05 05:50:43;;;;;;;8.20;2.60;;;10.40;76.30;;;;;;5113127;28;20066;-95
2023/10/05 05:53:16;;;;;;;9.02;2.78;;;10.40;76.00;;;;;;5113080;28;20040;-96
2023/10/05 05:55:44;;;;;;;7.22;2.72;;;10.40;75.90;;;;;;5113330;28;20052;-94
2023/10/05 05:58:16;;;;;;;7.40;2.40;;;10.40;76.10;;;;;;5113210;28;20044;-95
2023/10/05 06:00:46;;;;;;;7.07;2.33;;;10.40;75.90;;;;;;5112963;28;20040;-95
2023/10/05 06:03:14;;;;;;;7.07;2.65;;;10.40;76.10;;;;;;5113487;28;20048;-95
2023/10/05 06:05:41;;;;;;;6.53;2.25;;;10.50;76.00;;;;;;5113334;28;20513;-95
2023/10/05 06:08:11;;;;;;;8.90;2.35;;;10.50;75.70;;;;;;5113232;28;20116;-94
2023/10/05 06:10:38;;;;;;;8.82;2.70;;;10.50;75.60;;;;;;5113695;28;20520;-94
2023/10/05 06:13:06;;;;;;;9.93;2.13;;;10.50;75.60;;;;;;5113071;28;20036;-95
2023/10/05 06:15:34;;;;;;;7.82;2.30;;;10.60;75.90;;;;;;5113185;28;20094;-94
2023/10/05 06:18:03;;;;;;;6.30;2.10;;;10.80;75.10;;;;;;5079692;28;20043;-94
2023/10/05 06:20:31;;;;;;;9.45;2.35;;;10.80;74.60;;;;;;5115086;28;20075;-95
2023/10/05 06:23:00;;;;;;;8.75;2.20;;;11.00;74.60;;;;;;5084857;28;20066;-95
2023/10/05 06:25:28;;;;;;;6.67;2.30;;;11.00;74.70;;;;;;5117550;28;20111;-95
2023/10/05 06:27:55;;;;;;;7.35;2.20;;;11.10;74.40;;;;;;5099203;28;20123;-95
2023/10/05 06:30:22;;;;;;;6.45;2.30;;;11.20;74.00;;;;;;5117097;28;20052;-94
2023/10/05 06:32:50;;;;;;;10.23;2.60;;;11.20;74.40;;;;;;5116838;28;20044;-95
2023/10/05 06:35:17;;;;;;;9.07;2.38;;;11.30;74.10;;;;;;5116767;28;20046;-94
2023/10/05 06:37:45;;;;;;;5.77;2.13;;;11.40;73.90;;;;;;5116474;28;20045;-95
2023/10/05 06:40:12;;;;;;;7.00;2.40;;;11.40;73.50;;;;;;5082045;28;20062;-95
2023/10/05 06:42:42;;;;;;;6.03;2.05;;;11.40;73.80;;;;;;5114967;28;20044;-95
2023/10/05 06:45:13;;;;;;;7.63;2.15;;;11.40;73.70;;;;;;5115954;28;20044;-95
2023/10/05 06:47:43;;;;;;;6.53;2.35;;;11.50;73.70;;;;;;5114950;28;20048;-95
2023/10/05 06:50:11;;;;;;;5.10;2.00;;;11.50;73.70;;;;;;5116897;28;20425;-95
2023/10/05 06:52:43;;;;;;;5.90;1.80;;;11.50;73.50;;;;;;5117349;28;20404;-94
2023/10/05 06:55:12;;;;;;;6.28;1.70;;;11.60;73.60;;;;;;5116894;28;20044;-95
2023/10/05 06:57:43;;;;;;;6.05;1.95;;;11.70;73.50;;;;;;5128870;27;20062;-92
2023/10/05 07:00:21;;;;;;;6.30;2.03;;;11.80;73.70;;;;;;5121214;27;20071;-92
2023/10/05 07:02:50;;;;;;;5.70;1.80;;;11.90;73.20;;;;;;5085077;28;20039;-92
2023/10/05 07:05:20;;;;;;;7.90;2.20;;;12.00;73.00;;;;;;5087721;28;20523;-92
2023/10/05 07:07:47;;;;;;;7.50;1.70;;;12.10;73.10;;;;;;5118455;27;20035;-92
2023/10/05 07:10:15;;;;;;;7.00;1.83;;;12.20;72.20;;;;;;5104242;28;20067;-92
2023/10/05 07:12:48;;;;;;;7.70;2.20;;;12.20;71.90;;;;;;5081495;28;20051;-92
2023/10/05 07:15:17;;;;;;;5.90;2.03;;;12.30;71.70;;;;;;5114935;27;20036;-92
2023/10/05 07:17:47;;;;;;;6.78;1.98;;;12.40;71.90;;;;;;5119738;27;20043;-92
2023/10/05 07:20:16;;;;;;;7.28;2.13;;;12.50;71.90;;;;;;5119021;27;20050;-93
2023/10/05 07:23:05;;;;;;;8.35;1.95;;;12.60;71.50;;;;;;5102063;28;20067;-92
2023/10/05 07:25:33;;;;;;;5.72;2.15;;;12.70;71.10;;;;;;5096658;28;20046;-92
2023/10/05 07:28:00;;;;;;;6.90;2.10;;;12.80;70.80;;;;;;5120395;27;20486;-93
2023/10/05 07:30:29;;;;;;;7.57;1.83;;;12.90;71.00;;;;;;5117718;28;20036;-92
2023/10/05 07:32:56;;;;;;;5.65;1.70;;;13.00;70.30;;;;;;5114590;28;20062;-93
2023/10/05 07:35:41;;;;;;;6.80;2.15;;;13.00;70.70;;;;;;5116904;27;20032;-92
2023/10/05 07:38:11;;;;;;;5.78;1.92;;;13.10;70.40;;;;;;5118983;28;20036;-92
2023/10/05 07:40:39;;;;;;;5.33;1.80;;;13.20;70.70;;;;;;5089124;28;20036;-92
2023/10/05 07:43:06;;;;;;;7.15;1.70;;;13.20;70.20;;;;;;5112856;28;20588;-93
2023/10/05 07:45:34;;;;;;;7.80;2.03;;;13.30;70.30;;;;;;5120418;27;20082;-93
2023/10/05 07:48:04;;;;;;;7.28;2.40;;;13.40;69.90;;;;;;5116950;27;20039;-92
2023/10/05 07:50:32;;;;;;;7.28;2.28;;;13.40;70.50;;;;;;5116806;28;20044;-92
2023/10/05 07:52:59;;;;;;;7.53;2.23;;;13.50;69.60;;;;;;5090367;28;20047;-93
2023/10/05 07:55:26;;;;;;;6.97;1.90;;;13.50;70.00;;;;;;5119939;28;20198;-92
2023/10/05 07:57:54;;;;;;;6.18;1.90;;;13.60;69.10;;;;;;5116435;27;20052;-92
2023/10/05 08:00:21;;;;;;;12.43;1.98;;;13.70;69.70;;;;;;5116311;27;20071;-93
2023/10/05 08:02:48;;;;;;;11.90;2.13;;;13.80;69.60;;;;;;5105091;28;20055;-91
2023/10/05 08:05:16;;;;;;;5.40;1.67;;;13.90;68.60;;;;;;5082141;28;20044;-92
2023/10/05 08:07:46;;;;;;;5.40;1.60;;;14.00;68.50;;;;;;5117180;28;20052;-92
2023/10/05 08:10:15;;;;;;;5.85;1.63;;;14.10;69.00;;;;;;5120172;27;20040;-92
2023/10/05 08:12:44;;;;;;;8.10;2.00;;;14.20;68.60;;;;;;5091159;28;20397;-92
2023/10/05 08:15:18;;;;;;;5.65;2.00;;;14.30;68.20;;;;;;5088352;28;20409;-93
2023/10/05 08:17:48;;;;;;;6.33;2.33;;;14.40;68.30;;;;;;5123786;27;20032;-93
2023/10/05 08:20:17;;;;;;;7.68;1.90;;;14.50;67.60;;;;;;5090863;28;20576;-93
2023/10/05 08:22:50;;;;;;;9.27;2.40;;;14.60;68.00;;;;;;5124405;27;20080;-92
2023/10/05 08:25:18;;;;;;;5.38;2.08;;;14.80;66.80;;;;;;5086901;28;20050;-93
2023/10/05 08:27:48;;;;;;;8.50;2.20;;;14.90;67.40;;;;;;5121485;27;20044;-93
2023/10/05 08:30:15;;;;;;;6.20;1.97;;;15.00;66.90;;;;;;5125854;27;20055;-93
2023/10/05 08:32:47;;;;;;;9.45;1.88;;;15.10;65.60;;;;;;5085431;28;20114;-93
2023/10/05 08:35:18;;;;;;;6.50;1.83;;;15.10;66.40;;;;;;5116992;27;20040;-93
2023/10/05 08:37:53;;;;;;;6.55;1.83;;;15.20;66.70;;;;;;5122713;27;20048;-93
2023/10/05 08:43:16;;;;;;;5.10;1.90;;;15.40;66.00;;;;;;5104646;28;20047;-93
2023/10/05 08:45:51;;;;;;;5.03;1.70;;;15.50;65.50;;;;;;5121245;27;20076;-93
2023/10/05 08:48:35;;;;;;;5.93;1.52;;;15.50;65.00;;;;;;5091991;28;20043;-93
2023/10/05 08:51:13;;;;;;;6.75;1.98;;;15.50;64.70;;;;;;5097090;28;20044;-92
2023/10/05 08:53:43;;;;;;;6.43;1.83;;;15.60;64.40;;;;;;5121571;27;20545;-93
2023/10/05 08:56:15;;;;;;;4.60;1.63;;;15.60;65.10;;;;;;5104468;28;20046;-93
2023/10/05 08:58:47;;;;;;;6.45;1.90;;;15.70;64.10;;;;;;5126441;27;20578;-93
2023/10/05 09:01:31;;;;;;;8.05;1.85;;;15.90;65.50;;;;;;5119543;27;20412;-93
2023/10/05 09:04:01;;;;;;;9.50;2.63;;;16.00;66.20;;;;;;5122215;27;20047;-93
2023/10/05 09:06:31;;;;;;;6.65;2.00;;;16.10;64.00;;;;;;5102139;28;20405;-92
2023/10/05 09:11:31;;;;;;;5.82;1.70;;;16.20;63.00;;;;;;5102226;28;20035;-92
2023/10/05 09:14:27;;;;;;;5.95;1.40;;;16.40;61.00;;;;;;5120797;27;20046;-92
2023/10/05 09:17:07;;;;;;;6.18;1.25;;;16.40;58.00;;;;;;5108797;28;20443;-92
2023/10/05 09:19:37;;;;;;;5.72;1.58;;;16.50;57.60;;;;;;5120562;27;20118;-92
2023/10/05 09:22:12;;;;;;;6.70;1.40;;;16.50;59.30;;;;;;5121961;27;20058;-92
2023/10/05 09:24:42;;;;;;;6.97;1.77;;;16.60;56.80;;;;;;5120728;27;20048;-92
2023/10/05 09:27:12;;;;;;;7.60;2.03;;;16.70;56.50;;;;;;5125185;27;20079;-92
2023/10/05 09:29:41;;;;;;;7.47;1.73;;;16.80;56.90;;;;;;5124285;27;20067;-92
2023/10/05 09:32:36;;;;;;;5.38;1.38;;;16.80;55.60;;;;;;5115998;27;20040;-92
2023/10/05 09:35:10;;;;;;;6.93;1.40;;;16.80;56.40;;;;;;5087667;28;20488;-92
2023/10/05 09:37:40;;;;;;;4.10;1.33;;;16.90;54.70;;;;;;5122685;27;20134;-92
2023/10/05 09:40:15;;;;;;;5.57;1.80;;;17.00;54.50;;;;;;5099087;28;20035;-92
2023/10/05 09:42:44;;;;;;;4.40;1.50;;;17.10;55.80;;;;;;5124873;27;20047;-92
2023/10/05 09:45:13;;;;;;;6.10;1.50;;;17.20;54.10;;;;;;5118799;27;20044;-92
2023/10/05 09:47:41;;;;;;;7.77;1.70;;;17.20;54.10;;;;;;5114411;27;20383;-93
2023/10/05 09:50:10;;;;;;;6.20;1.42;;;17.30;54.50;;;;;;5126623;27;20070;-92
2023/10/05 09:52:45;;;;;;;5.15;1.55;;;17.30;53.60;;;;;;5104930;28;20040;-92
2023/10/05 09:55:13;;;;;;;4.10;1.40;;;17.30;52.40;;;;;;5121706;27;20092;-93
2023/10/05 09:57:41;;;;;;;4.65;1.23;;;17.30;52.50;;;;;;5115935;27;20062;-94
2023/10/05 10:00:27;;;;;;;8.03;1.67;;;17.30;53.40;;;;;;5096127;28;20086;-92
2023/10/05 10:02:59;;;;;;;6.07;1.45;;;17.40;52.50;;;;;;5097257;28;20070;-93
2023/10/05 10:05:33;;;;;;;6.10;1.25;;;17.50;52.00;;;;;;5104445;28;20490;-92
2023/10/05 10:08:10;;;;;;;5.28;1.88;;;17.50;52.10;;;;;;5124415;27;20048;-92
2023/10/05 10:10:51;;;;;;;8.13;1.40;;;17.50;52.70;;;;;;5119757;27;20054;-92
2023/10/05 10:13:22;;;;;;;4.77;1.30;;;17.60;51.70;;;;;;5104793;28;20043;-92
2023/10/05 10:15:53;;;;;;;5.80;1.52;;;17.70;51.60;;;;;;5104936;28;20040;-93
2023/10/05 10:18:30;;;;;;;6.03;1.35;;;17.70;50.90;;;;;;5119942;27;20511;-92
2023/10/05 10:20:58;;;;;;;5.72;1.42;;;17.80;52.10;;;;;;5119511;27;20046;-92
2023/10/05 10:23:39;;;;;;;3.95;1.27;;;17.70;51.80;;;;;;5087352;28;20077;-92
2023/10/05 10:26:18;;;;;;;5.57;1.60;;;17.80;51.20;;;;;;5121418;27;20050;-92
2023/10/05 10:31:42;;;;;;;5.95;1.50;;;17.90;52.20;;;;;;5100973;28;20056;-93
2023/10/05 10:34:19;;;;;;;4.97;1.60;;;18.00;53.10;;;;;;5103855;28;20047;-92
2023/10/05 10:36:53;;;;;;;5.75;1.50;;;18.00;52.40;;;;;;5119398;27;20035;-92
2023/10/05 10:39:24;;;;;;;4.70;1.30;;;18.10;51.20;;;;;;5104765;28;20046;-92
2023/10/05 10:42:07;;;;;;;5.78;1.70;;;18.20;51.40;;;;;;5089241;28;20062;-93
2023/10/05 10:44:57;;;;;;;4.38;1.25;;;18.30;50.00;;;;;;5102587;28;20043;-93
2023/10/05 10:47:27;;;;;;;5.55;1.42;;;18.30;50.20;;;;;;5089833;28;20048;-93
2023/10/05 10:50:22;;;;;;;6.68;1.60;;;18.30;50.60;;;;;;5091734;28;20052;-93
2023/10/05 10:52:50;;;;;;;6.33;1.43;;;18.30;50.70;;;;;;5116847;27;20061;-93
2023/10/05 10:55:20;;;;;;;5.70;1.52;;;18.30;49.50;;;;;;5119368;27;20370;-93
2023/10/05 10:57:48;;;;;;;7.78;1.80;;;18.30;50.20;;;;;;5104037;28;20059;-93
2023/10/05 11:03:12;;;;;;;6.13;2.13;;;18.30;50.80;;;;;;5107669;28;20089;-93
2023/10/05 11:05:40;;;;;;;6.63;1.63;;;18.30;50.90;;;;;;5121087;27;20446;-93
2023/10/05 11:08:11;;;;;;;7.85;1.90;;;18.40;49.60;;;;;;5124421;27;20082;-93
2023/10/05 11:10:42;;;;;;;6.15;1.98;;;18.40;49.90;;;;;;5115978;27;20050;-92
2023/10/05 11:13:19;;;;;;;6.07;1.85;;;18.50;50.10;;;;;;5103205;28;20040;-92
2023/10/05 11:16:00;;;;;;;6.93;1.85;;;18.50;49.80;;;;;;5098156;28;20184;-93
2023/10/05 11:18:39;;;;;;;5.70;1.63;;;18.60;50.10;;;;;;5125989;27;20120;-93
2023/10/05 11:21:16;;;;;;;7.05;1.85;;;18.70;50.40;;;;;;5103214;28;20400;-92
2023/10/05 11:23:48;;;;;;;8.57;1.80;;;18.70;49.90;;;;;;5120407;27;20050;-93
2023/10/05 11:26:19;;;;;;;5.88;1.90;;;18.80;51.80;;;;;;5115473;28;20068;-93
2023/10/05 11:28:53;;;;;;;6.50;1.90;;;18.90;50.90;;;;;;5104951;28;20412;-93
2023/10/05 11:31:33;;;;;;;5.13;1.90;;;18.80;50.40;;;;;;5118934;28;20055;-94
2023/10/05 11:34:24;;;;;;;6.43;1.65;;;18.80;49.70;;;;;;5121913;27;20147;-93
2023/10/05 11:37:18;;;;;;;6.72;1.98;;;18.90;49.10;;;;;;5115123;27;20043;-94
2023/10/05 11:39:49;;;;;;;6.15;1.83;;;18.90;50.50;;;;;;5095002;28;20054;-93
2023/10/05 11:42:24;;;;;;;5.35;1.90;;;19.00;49.70;;;;;;5115102;28;20653;-92
2023/10/05 11:45:12;;;;;;;5.97;1.70;;;19.00;49.30;;;;;;5124356;27;20054;-93
2023/10/05 11:47:45;;;;;;;6.60;2.00;;;19.10;47.80;;;;;;5114095;28;20088;-94
2023/10/05 11:50:24;;;;;;;8.23;2.30;;;19.10;48.60;;;;;;5100513;28;20044;-93
2023/10/05 11:52:52;;;;;;;5.35;1.70;;;19.10;48.60;;;;;;5113126;28;20427;-93
2023/10/05 11:55:20;;;;;;;5.20;2.10;;;19.10;48.70;;;;;;5126629;27;20035;-93
2023/10/05 11:57:48;;;;;;;7.63;1.70;;;19.00;48.10;;;;;;5109335;28;20050;-93
2023/10/05 12:00:18;;;;;;;5.97;1.92;;;19.00;49.50;;;;;;5091137;28;20036;-93
2023/10/05 12:02:45;;;;;;;7.32;1.80;;;19.00;48.40;;;;;;5122805;27;20048;-92
2023/10/05 12:05:13;;;;;;;5.78;1.52;;;19.00;47.10;;;;;;5118652;27;20044;-93
2023/10/05 12:07:45;;;;;;;6.07;1.98;;;19.00;46.50;;;;;;5108009;28;20051;-93
2023/10/05 12:10:13;;;;;;;5.80;2.07;;;18.90;47.20;;;;;;5125376;27;20051;-92
2023/10/05 12:12:41;;;;;;;8.32;2.05;;;19.00;47.00;;;;;;5128937;27;20139;-93
2023/10/05 12:15:12;;;;;;;8.38;2.20;;;19.00;46.30;;;;;;5122121;27;20418;-92
2023/10/05 12:17:40;;;;;;;5.55;1.85;;;19.10;47.20;;;;;;5112469;28;20152;-93
2023/10/05 12:20:08;;;;;;;7.85;2.10;;;19.20;46.30;;;;;;5087305;28;20107;-93
2023/10/05 12:22:37;;;;;;;6.47;1.67;;;19.20;46.10;;;;;;5125153;27;20040;-93
2023/10/05 12:25:07;;;;;;;6.63;2.00;;;19.20;47.10;;;;;;5122355;27;20044;-92
2023/10/05 12:27:35;;;;;;;5.78;1.70;;;19.30;47.70;;;;;;5122455;27;20059;-94
2023/10/05 12:30:11;;;;;;;5.90;1.95;;;19.30;48.30;;;;;;5120088;27;20040;-93
2023/10/05 12:32:39;;;;;;;5.50;1.80;;;19.20;46.50;;;;;;5125953;27;20043;-92
2023/10/05 12:35:08;;;;;;;6.13;1.90;;;19.00;47.30;;;;;;5103849;28;20067;-93
2023/10/05 12:37:35;;;;;;;6.38;1.95;;;19.00;47.70;;;;;;5122406;27;20039;-92
2023/10/05 12:40:17;;;;;;;7.97;2.22;;;18.80;48.10;;;;;;5099420;28;20445;-92
2023/10/05 12:42:54;;;;;;;6.40;1.77;;;18.70;48.40;;;;;;5124563;27;20046;-92
2023/10/05 12:45:24;;;;;;;8.00;1.92;;;18.60;49.30;;;;;;5121840;27;20040;-94
2023/10/05 12:47:55;;;;;;;6.93;1.70;;;18.50;48.90;;;;;;5122754;27;20043;-92
2023/10/05 12:50:28;;;;;;;6.97;1.92;;;18.50;49.60;;;;;;5120886;27;20083;-92
2023/10/05 12:52:56;;;;;;;6.30;1.58;;;18.40;50.50;;;;;;5121456;27;20127;-92
2023/10/05 12:55:26;;;;;;;6.45;1.85;;;18.30;51.50;;;;;;5120459;27;20040;-93
2023/10/05 12:57:53;;;;;;;6.07;1.77;;;18.40;51.30;;;;;;5130855;27;20097;-90
2023/10/05 13:00:25;;;;;;;4.97;1.80;;;18.50;51.80;;;;;;5112749;28;20040;-90
2023/10/05 13:02:53;;;;;;;6.30;2.28;;;18.60;51.80;;;;;;5127869;27;20096;-90
2023/10/05 13:05:28;;;;;;;6.53;2.30;;;18.70;52.20;;;;;;5133327;27;20043;-90
2023/10/05 13:08:01;;;;;;;6.85;2.45;;;18.80;50.60;;;;;;5116338;28;20151;-90
2023/10/05 13:10:32;;;;;;;5.53;2.35;;;18.90;50.50;;;;;;5133800;27;20386;-91
2023/10/05 13:13:09;;;;;;;7.07;2.17;;;18.80;50.90;;;;;;5116080;28;20051;-90
2023/10/05 13:15:38;;;;;;;6.65;2.30;;;18.80;50.80;;;;;;5133837;27;20558;-90
2023/10/05 13:18:21;;;;;;;5.30;2.00;;;18.70;50.80;;;;;;5116034;28;20046;-90
2023/10/05 13:20:49;;;;;;;6.35;2.10;;;18.60;51.60;;;;;;5099063;28;20078;-90
2023/10/05 13:23:21;;;;;;;7.20;2.30;;;18.60;52.00;;;;;;5116137;28;20039;-90
2023/10/05 13:25:51;;;;;;;5.97;1.80;;;18.60;51.50;;;;;;5115663;28;20043;-90
2023/10/05 13:28:20;;;;;;;6.93;2.22;;;18.50;52.80;;;;;;5098986;28;20052;-91
2023/10/05 13:30:47;;;;;;;8.23;2.03;;;18.50;52.50;;;;;;5099078;28;20054;-91
2023/10/05 13:33:21;;;;;;;8.13;2.13;;;18.40;51.80;;;;;;5099005;28;20108;-91
2023/10/05 13:35:53;;;;;;;6.53;2.13;;;18.40;51.90;;;;;;5099011;28;20044;-91